sensor_id;sensor_type;location;lat;lon;timestamp;temperature;humidity
32749;DHT22;19119;52.474;13.710;2023-02-18T00:01:37;7.30;99.90
32749;DHT22;19119;52.474;13.710;2023-02-18T00:04:03;7.30;99.90
32749;DHT22;19119;52.474;13.710;2023-02-18T00:06:29;7.30;99.90
32749;DHT22;19119;52.474;13.710;2023-02-18T00:08:55;7.30;99.90
32749;DHT22;19119;52.474;13.710;2023-02-18T00:11:23;7.30;99.90
32749;DHT22;19119;52.474;13.710;2023-02-18T00:13:49;7.30;99.90
32749;DHT22;19119;52.474;13.710;2023-02-18T00:16:15;7.30;99.90
32749;DHT22;19119;52.474;13.710;2023-02-18T00:18:41;7.40;99.90
32749;DHT22;19119;52.474;13.710;2023-02-18T00:21:06;7.30;99.90
32749;DHT22;19119;52.474;13.710;2023-02-18T00:23:32;7.30;99.90
32749;DHT22;19119;52.474;13.710;2023-02-18T00:26:02;7.30;99.90
32749;DHT22;19119;52.474;13.710;2023-02-18T00:28:28;7.30;99.90
32749;DHT22;19119;52.474;13.710;2023-02-18T00:30:53;7.30;99.90
32749;DHT22;19119;52.474;13.710;2023-02-18T00:33:19;7.30;99.90
32749;DHT22;19119;52.474;13.710;2023-02-18T00:35:44;7.20;99.90
32749;DHT22;19119;52.474;13.710;2023-02-18T00:38:10;7.20;99.90
32749;DHT22;19119;52.474;13.710;2023-02-18T00:40:39;7.20;99.90
32749;DHT22;19119;52.474;13.710;2023-02-18T00:43:04;7.10;99.90
32749;DHT22;19119;52.474;13.710;2023-02-18T00:45:30;7.10;99.90
32749;DHT22;19119;52.474;13.710;2023-02-18T00:47:55;7.10;99.90
32749;DHT22;19119;52.474;13.710;2023-02-18T00:50:21;7.10;99.90
32749;DHT22;19119;52.474;13.710;2023-02-18T00:52:47;7.10;99.90
32749;DHT22;19119;52.474;13.710;2023-02-18T00:55:12;7.00;99.90
32749;DHT22;19119;52.474;13.710;2023-02-18T00:57:38;7.00;99.90
32749;DHT22;19119;52.474;13.710;2023-02-18T01:00:05;6.90;99.90
32749;DHT22;19119;52.474;13.710;2023-02-18T01:02:31;6.80;99.90
32749;DHT22;19119;52.474;13.710;2023-02-18T01:04:56;6.70;99.90
32749;DHT22;19119;52.474;13.710;2023-02-18T01:07:22;6.80;99.90
32749;DHT22;19119;52.474;13.710;2023-02-18T01:09:47;6.80;99.90
32749;DHT22;19119;52.474;13.710;2023-02-18T01:12:13;6.70;99.90
32749;DHT22;19119;52.474;13.710;2023-02-18T01:14:39;6.70;99.90
32749;DHT22;19119;52.474;13.710;2023-02-18T01:17:04;6.60;99.90
32749;DHT22;19119;52.474;13.710;2023-02-18T01:19:30;6.60;99.90
32749;DHT22;19119;52.474;13.710;2023-02-18T01:21:56;6.60;99.90
32749;DHT22;19119;52.474;13.710;2023-02-18T01:24:21;6.50;99.90
32749;DHT22;19119;52.474;13.710;2023-02-18T01:26:47;6.50;99.90
32749;DHT22;19119;52.474;13.710;2023-02-18T01:29:12;6.50;99.90
32749;DHT22;19119;52.474;13.710;2023-02-18T01:31:38;6.40;99.90
32749;DHT22;19119;52.474;13.710;2023-02-18T01:34:03;6.40;99.90
32749;DHT22;19119;52.474;13.710;2023-02-18T01:36:29;6.50;99.90
32749;DHT22;19119;52.474;13.710;2023-02-18T01:38:54;6.40;99.90
32749;DHT22;19119;52.474;13.710;2023-02-18T01:41:20;6.40;99.90
32749;DHT22;19119;52.474;13.710;2023-02-18T01:43:45;6.40;99.90
32749;DHT22;19119;52.474;13.710;2023-02-18T01:46:19;6.40;99.90
32749;DHT22;19119;52.474;13.710;2023-02-18T01:51:17;6.40;99.90
32749;DHT22;19119;52.474;13.710;2023-02-18T01:53:50;6.40;99.90
32749;DHT22;19119;52.474;13.710;2023-02-18T01:56:19;6.40;99.90
32749;DHT22;19119;52.474;13.710;2023-02-18T01:58:47;6.40;99.90
32749;DHT22;19119;52.474;13.710;2023-02-18T02:01:12;6.40;99.90
32749;DHT22;19119;52.474;13.710;2023-02-18T02:03:38;6.40;99.90
32749;DHT22;19119;52.474;13.710;2023-02-18T02:06:11;6.40;99.90
32749;DHT22;19119;52.474;13.710;2023-02-18T02:08:38;6.40;99.90
32749;DHT22;19119;52.474;13.710;2023-02-18T02:13:56;6.30;99.90
32749;DHT22;19119;52.474;13.710;2023-02-18T02:30:11;6.30;99.90
32749;DHT22;19119;52.474;13.710;2023-02-18T02:33:04;6.30;99.90
32749;DHT22;19119;52.474;13.710;2023-02-18T02:38:48;6.30;99.90
32749;DHT22;19119;52.474;13.710;2023-02-18T02:47:07;6.30;99.90
32749;DHT22;19119;52.474;13.710;2023-02-18T02:49:48;6.20;99.90
32749;DHT22;19119;52.474;13.710;2023-02-18T02:52:32;6.20;99.90
32749;DHT22;19119;52.474;13.710;2023-02-18T02:54:58;6.20;99.90
32749;DHT22;19119;52.474;13.710;2023-02-18T02:59:55;6.20;99.90
32749;DHT22;19119;52.474;13.710;2023-02-18T03:03:04;6.10;99.90
32749;DHT22;19119;52.474;13.710;2023-02-18T03:08:44;6.00;99.90
32749;DHT22;19119;52.474;13.710;2023-02-18T03:11:14;6.00;99.90
32749;DHT22;19119;52.474;13.710;2023-02-18T03:17:04;6.10;99.90
32749;DHT22;19119;52.474;13.710;2023-02-18T03:19:39;6.10;99.90
32749;DHT22;19119;52.474;13.710;2023-02-18T03:22:13;6.10;99.90
32749;DHT22;19119;52.474;13.710;2023-02-18T03:24:43;6.10;99.90
32749;DHT22;19119;52.474;13.710;2023-02-18T03:27:34;6.00;99.90
32749;DHT22;19119;52.474;13.710;2023-02-18T03:30:10;6.10;99.90
32749;DHT22;19119;52.474;13.710;2023-02-18T03:32:37;6.00;99.90
32749;DHT22;19119;52.474;13.710;2023-02-18T03:35:12;6.00;99.90
32749;DHT22;19119;52.474;13.710;2023-02-18T03:37:42;6.00;99.90
32749;DHT22;19119;52.474;13.710;2023-02-18T03:40:10;6.10;99.90
32749;DHT22;19119;52.474;13.710;2023-02-18T03:42:36;6.10;99.90
32749;DHT22;19119;52.474;13.710;2023-02-18T03:45:02;6.10;99.90
32749;DHT22;19119;52.474;13.710;2023-02-18T03:47:28;6.10;99.90
32749;DHT22;19119;52.474;13.710;2023-02-18T03:49:53;6.10;99.90
32749;DHT22;19119;52.474;13.710;2023-02-18T03:52:19;6.20;99.90
32749;DHT22;19119;52.474;13.710;2023-02-18T03:54:45;6.20;99.90
32749;DHT22;19119;52.474;13.710;2023-02-18T03:57:10;6.20;99.90
32749;DHT22;19119;52.474;13.710;2023-02-18T03:59:36;6.20;99.90
32749;DHT22;19119;52.474;13.710;2023-02-18T04:02:01;6.20;99.90
32749;DHT22;19119;52.474;13.710;2023-02-18T04:04:27;6.20;99.90
32749;DHT22;19119;52.474;13.710;2023-02-18T04:06:53;6.20;99.90
32749;DHT22;19119;52.474;13.710;2023-02-18T04:09:18;6.20;99.90
32749;DHT22;19119;52.474;13.710;2023-02-18T04:11:44;6.10;99.90
32749;DHT22;19119;52.474;13.710;2023-02-18T04:14:12;6.10;99.90
32749;DHT22;19119;52.474;13.710;2023-02-18T04:16:38;6.10;99.90
32749;DHT22;19119;52.474;13.710;2023-02-18T04:19:03;6.10;99.90
32749;DHT22;19119;52.474;13.710;2023-02-18T04:21:29;6.00;99.90
32749;DHT22;19119;52.474;13.710;2023-02-18T04:23:54;6.00;99.90
32749;DHT22;19119;52.474;13.710;2023-02-18T04:26:20;6.00;99.90
32749;DHT22;19119;52.474;13.710;2023-02-18T04:28:45;6.00;99.90
32749;DHT22;19119;52.474;13.710;2023-02-18T04:31:11;6.00;99.90
32749;DHT22;19119;52.474;13.710;2023-02-18T04:33:36;5.90;99.90
32749;DHT22;19119;52.474;13.710;2023-02-18T04:36:02;5.90;99.90
32749;DHT22;19119;52.474;13.710;2023-02-18T04:38:28;5.90;99.90
32749;DHT22;19119;52.474;13.710;2023-02-18T04:40:53;5.80;99.90
32749;DHT22;19119;52.474;13.710;2023-02-18T04:43:19;5.90;99.90
32749;DHT22;19119;52.474;13.710;2023-02-18T04:45:44;5.80;99.90
32749;DHT22;19119;52.474;13.710;2023-02-18T04:48:10;5.80;99.90
32749;DHT22;19119;52.474;13.710;2023-02-18T04:50:35;5.90;99.90
32749;DHT22;19119;52.474;13.710;2023-02-18T04:53:01;5.90;99.90
32749;DHT22;19119;52.474;13.710;2023-02-18T04:55:26;5.80;99.90
32749;DHT22;19119;52.474;13.710;2023-02-18T04:57:52;5.80;99.90
32749;DHT22;19119;52.474;13.710;2023-02-18T05:00:18;5.80;99.90
32749;DHT22;19119;52.474;13.710;2023-02-18T05:02:44;5.80;99.90
32749;DHT22;19119;52.474;13.710;2023-02-18T05:05:10;5.70;99.90
32749;DHT22;19119;52.474;13.710;2023-02-18T05:07:36;5.70;99.90
32749;DHT22;19119;52.474;13.710;2023-02-18T05:10:02;5.70;99.90
32749;DHT22;19119;52.474;13.710;2023-02-18T05:12:28;5.70;99.90
32749;DHT22;19119;52.474;13.710;2023-02-18T05:14:53;5.70;99.90
32749;DHT22;19119;52.474;13.710;2023-02-18T05:17:19;5.70;99.90
32749;DHT22;19119;52.474;13.710;2023-02-18T05:19:44;5.70;99.90
32749;DHT22;19119;52.474;13.710;2023-02-18T05:22:10;5.60;99.90
32749;DHT22;19119;52.474;13.710;2023-02-18T05:24:35;5.70;99.90
32749;DHT22;19119;52.474;13.710;2023-02-18T05:27:01;5.70;99.90
32749;DHT22;19119;52.474;13.710;2023-02-18T05:29:26;5.80;99.90
32749;DHT22;19119;52.474;13.710;2023-02-18T05:31:52;5.80;99.90
32749;DHT22;19119;52.474;13.710;2023-02-18T05:34:18;5.80;99.90
32749;DHT22;19119;52.474;13.710;2023-02-18T05:36:43;5.80;99.90
32749;DHT22;19119;52.474;13.710;2023-02-18T05:39:09;5.80;99.90
32749;DHT22;19119;52.474;13.710;2023-02-18T05:41:34;5.80;99.90
32749;DHT22;19119;52.474;13.710;2023-02-18T05:44:00;5.90;99.90
32749;DHT22;19119;52.474;13.710;2023-02-18T05:46:45;5.90;99.90
32749;DHT22;19119;52.474;13.710;2023-02-18T05:49:11;5.90;99.90
32749;DHT22;19119;52.474;13.710;2023-02-18T05:51:36;6.00;99.90
32749;DHT22;19119;52.474;13.710;2023-02-18T05:54:02;6.00;99.90
32749;DHT22;19119;52.474;13.710;2023-02-18T05:56:28;6.00;99.90
32749;DHT22;19119;52.474;13.710;2023-02-18T05:58:53;6.10;99.90
32749;DHT22;19119;52.474;13.710;2023-02-18T06:01:19;6.10;99.90
32749;DHT22;19119;52.474;13.710;2023-02-18T06:03:44;6.10;99.90
32749;DHT22;19119;52.474;13.710;2023-02-18T06:06:10;6.10;99.90
32749;DHT22;19119;52.474;13.710;2023-02-18T06:08:35;6.20;99.90
32749;DHT22;19119;52.474;13.710;2023-02-18T06:11:02;6.20;99.90
32749;DHT22;19119;52.474;13.710;2023-02-18T06:13:28;6.20;99.90
32749;DHT22;19119;52.474;13.710;2023-02-18T06:15:53;6.20;99.90
32749;DHT22;19119;52.474;13.710;2023-02-18T06:18:19;6.30;99.90
32749;DHT22;19119;52.474;13.710;2023-02-18T06:20:48;6.30;99.90
32749;DHT22;19119;52.474;13.710;2023-02-18T06:23:14;6.30;99.90
32749;DHT22;19119;52.474;13.710;2023-02-18T06:25:40;6.40;99.90
32749;DHT22;19119;52.474;13.710;2023-02-18T06:28:06;6.40;99.90
32749;DHT22;19119;52.474;13.710;2023-02-18T06:30:32;6.30;99.90
32749;DHT22;19119;52.474;13.710;2023-02-18T06:32:57;6.30;99.90
32749;DHT22;19119;52.474;13.710;2023-02-18T06:35:23;6.30;99.90
32749;DHT22;19119;52.474;13.710;2023-02-18T06:37:48;6.40;99.90
32749;DHT22;19119;52.474;13.710;2023-02-18T06:40:14;6.40;99.90
32749;DHT22;19119;52.474;13.710;2023-02-18T06:42:39;6.40;99.90
32749;DHT22;19119;52.474;13.710;2023-02-18T06:45:06;6.40;99.90
32749;DHT22;19119;52.474;13.710;2023-02-18T06:47:33;6.50;99.90
32749;DHT22;19119;52.474;13.710;2023-02-18T06:49:58;6.50;99.90
32749;DHT22;19119;52.474;13.710;2023-02-18T06:52:24;6.60;99.90
32749;DHT22;19119;52.474;13.710;2023-02-18T06:54:49;6.60;99.90
32749;DHT22;19119;52.474;13.710;2023-02-18T06:57:15;6.60;99.90
32749;DHT22;19119;52.474;13.710;2023-02-18T06:59:40;6.50;99.90
32749;DHT22;19119;52.474;13.710;2023-02-18T07:02:06;6.60;99.90
32749;DHT22;19119;52.474;13.710;2023-02-18T07:04:31;6.60;99.90
32749;DHT22;19119;52.474;13.710;2023-02-18T07:06:57;6.60;99.90
32749;DHT22;19119;52.474;13.710;2023-02-18T07:09:22;6.60;99.90
32749;DHT22;19119;52.474;13.710;2023-02-18T07:11:48;6.60;99.90
32749;DHT22;19119;52.474;13.710;2023-02-18T07:14:13;6.70;99.90
32749;DHT22;19119;52.474;13.710;2023-02-18T07:16:39;6.70;99.90
32749;DHT22;19119;52.474;13.710;2023-02-18T07:19:04;6.70;99.90
32749;DHT22;19119;52.474;13.710;2023-02-18T07:21:30;6.80;99.90
32749;DHT22;19119;52.474;13.710;2023-02-18T07:23:55;6.80;99.90
32749;DHT22;19119;52.474;13.710;2023-02-18T07:26:21;6.80;99.90
32749;DHT22;19119;52.474;13.710;2023-02-18T07:28:47;6.80;99.90
32749;DHT22;19119;52.474;13.710;2023-02-18T07:31:12;6.80;99.90
32749;DHT22;19119;52.474;13.710;2023-02-18T07:33:38;6.90;99.90
32749;DHT22;19119;52.474;13.710;2023-02-18T07:36:03;6.90;99.90
32749;DHT22;19119;52.474;13.710;2023-02-18T07:38:29;7.00;99.90
32749;DHT22;19119;52.474;13.710;2023-02-18T07:40:56;7.00;99.90
32749;DHT22;19119;52.474;13.710;2023-02-18T07:43:22;7.10;99.90
32749;DHT22;19119;52.474;13.710;2023-02-18T07:45:48;7.10;99.90
32749;DHT22;19119;52.474;13.710;2023-02-18T07:48:13;7.10;99.90
32749;DHT22;19119;52.474;13.710;2023-02-18T07:50:41;7.10;99.90
32749;DHT22;19119;52.474;13.710;2023-02-18T07:53:08;7.10;99.90
32749;DHT22;19119;52.474;13.710;2023-02-18T07:55:35;7.20;99.90
32749;DHT22;19119;52.474;13.710;2023-02-18T07:58:21;7.30;99.90
32749;DHT22;19119;52.474;13.710;2023-02-18T08:00:47;7.20;99.90
32749;DHT22;19119;52.474;13.710;2023-02-18T08:03:17;7.40;99.90
32749;DHT22;19119;52.474;13.710;2023-02-18T08:05:43;7.40;99.90
32749;DHT22;19119;52.474;13.710;2023-02-18T08:08:12;7.40;99.90
32749;DHT22;19119;52.474;13.710;2023-02-18T08:10:38;7.40;99.90
32749;DHT22;19119;52.474;13.710;2023-02-18T08:13:04;7.40;99.90
32749;DHT22;19119;52.474;13.710;2023-02-18T08:15:29;7.40;99.90
32749;DHT22;19119;52.474;13.710;2023-02-18T08:17:55;7.40;99.90
32749;DHT22;19119;52.474;13.710;2023-02-18T08:20:20;7.50;99.90
32749;DHT22;19119;52.474;13.710;2023-02-18T08:22:46;7.50;99.90
32749;DHT22;19119;52.474;13.710;2023-02-18T08:25:11;7.50;99.90
32749;DHT22;19119;52.474;13.710;2023-02-18T08:27:37;7.40;99.90
32749;DHT22;19119;52.474;13.710;2023-02-18T08:30:03;7.40;99.90
32749;DHT22;19119;52.474;13.710;2023-02-18T08:32:29;7.40;99.90
32749;DHT22;19119;52.474;13.710;2023-02-18T08:34:54;7.30;99.90
32749;DHT22;19119;52.474;13.710;2023-02-18T08:37:20;7.30;99.90
32749;DHT22;19119;52.474;13.710;2023-02-18T08:39:45;7.40;99.90
32749;DHT22;19119;52.474;13.710;2023-02-18T08:42:11;7.30;99.90
32749;DHT22;19119;52.474;13.710;2023-02-18T08:44:36;7.40;99.90
32749;DHT22;19119;52.474;13.710;2023-02-18T08:47:02;7.20;99.90
32749;DHT22;19119;52.474;13.710;2023-02-18T08:49:27;7.20;99.90
32749;DHT22;19119;52.474;13.710;2023-02-18T08:51:53;7.20;99.90
32749;DHT22;19119;52.474;13.710;2023-02-18T08:54:18;7.20;99.90
32749;DHT22;19119;52.474;13.710;2023-02-18T08:56:44;7.10;99.90
32749;DHT22;19119;52.474;13.710;2023-02-18T08:59:10;7.10;99.90
32749;DHT22;19119;52.474;13.710;2023-02-18T09:01:35;7.10;99.90
32749;DHT22;19119;52.474;13.710;2023-02-18T09:04:01;7.10;99.90
32749;DHT22;19119;52.474;13.710;2023-02-18T09:06:27;7.00;99.90
32749;DHT22;19119;52.474;13.710;2023-02-18T09:08:52;6.90;99.90
32749;DHT22;19119;52.474;13.710;2023-02-18T09:11:18;6.90;99.90
32749;DHT22;19119;52.474;13.710;2023-02-18T09:13:44;6.90;99.90
32749;DHT22;19119;52.474;13.710;2023-02-18T09:16:16;6.90;99.90
32749;DHT22;19119;52.474;13.710;2023-02-18T09:18:46;6.80;99.90
32749;DHT22;19119;52.474;13.710;2023-02-18T09:21:13;6.90;99.90
32749;DHT22;19119;52.474;13.710;2023-02-18T09:23:40;7.00;99.90
32749;DHT22;19119;52.474;13.710;2023-02-18T09:26:08;7.10;99.90
32749;DHT22;19119;52.474;13.710;2023-02-18T09:28:35;6.90;99.90
32749;DHT22;19119;52.474;13.710;2023-02-18T09:31:08;6.90;99.90
32749;DHT22;19119;52.474;13.710;2023-02-18T09:33:39;6.90;99.90
32749;DHT22;19119;52.474;13.710;2023-02-18T09:36:05;7.00;99.90
32749;DHT22;19119;52.474;13.710;2023-02-18T09:38:31;7.10;99.90
32749;DHT22;19119;52.474;13.710;2023-02-18T09:40:57;7.00;99.90
32749;DHT22;19119;52.474;13.710;2023-02-18T09:43:33;7.10;99.90
32749;DHT22;19119;52.474;13.710;2023-02-18T09:46:00;7.10;99.90
32749;DHT22;19119;52.474;13.710;2023-02-18T09:48:32;7.20;99.90
32749;DHT22;19119;52.474;13.710;2023-02-18T09:50:59;7.10;99.90
32749;DHT22;19119;52.474;13.710;2023-02-18T09:53:25;7.10;99.90
32749;DHT22;19119;52.474;13.710;2023-02-18T09:55:53;7.20;99.90
32749;DHT22;19119;52.474;13.710;2023-02-18T09:58:24;7.10;99.90
32749;DHT22;19119;52.474;13.710;2023-02-18T10:01:02;7.20;99.90
32749;DHT22;19119;52.474;13.710;2023-02-18T10:03:28;7.30;99.90
32749;DHT22;19119;52.474;13.710;2023-02-18T10:06:02;7.20;99.90
32749;DHT22;19119;52.474;13.710;2023-02-18T10:08:33;7.40;99.90
32749;DHT22;19119;52.474;13.710;2023-02-18T10:11:00;7.40;99.90
32749;DHT22;19119;52.474;13.710;2023-02-18T10:13:31;7.40;99.90
32749;DHT22;19119;52.474;13.710;2023-02-18T10:15:58;7.40;99.90
32749;DHT22;19119;52.474;13.710;2023-02-18T10:21:41;7.40;99.90
32749;DHT22;19119;52.474;13.710;2023-02-18T10:24:29;7.40;99.90
32749;DHT22;19119;52.474;13.710;2023-02-18T10:26:56;7.40;99.90
32749;DHT22;19119;52.474;13.710;2023-02-18T10:29:23;7.40;99.90
32749;DHT22;19119;52.474;13.710;2023-02-18T10:37:56;7.30;99.90
32749;DHT22;19119;52.474;13.710;2023-02-18T10:49:37;7.30;99.90
32749;DHT22;19119;52.474;13.710;2023-02-18T10:52:07;7.30;99.90
32749;DHT22;19119;52.474;13.710;2023-02-18T10:54:52;7.20;99.90
32749;DHT22;19119;52.474;13.710;2023-02-18T10:57:23;7.30;99.90
32749;DHT22;19119;52.474;13.710;2023-02-18T10:59:59;7.30;99.90
32749;DHT22;19119;52.474;13.710;2023-02-18T11:02:29;7.30;99.90
32749;DHT22;19119;52.474;13.710;2023-02-18T11:04:58;7.20;99.90
32749;DHT22;19119;52.474;13.710;2023-02-18T11:07:30;7.30;99.90
32749;DHT22;19119;52.474;13.710;2023-02-18T11:10:17;7.30;99.90
32749;DHT22;19119;52.474;13.710;2023-02-18T11:12:49;7.40;99.90
32749;DHT22;19119;52.474;13.710;2023-02-18T11:15:19;7.30;99.90
32749;DHT22;19119;52.474;13.710;2023-02-18T11:17:47;7.40;99.90
32749;DHT22;19119;52.474;13.710;2023-02-18T11:20:28;7.40;99.90
32749;DHT22;19119;52.474;13.710;2023-02-18T11:25:37;7.50;99.90
32749;DHT22;19119;52.474;13.710;2023-02-18T11:28:06;7.60;99.90
32749;DHT22;19119;52.474;13.710;2023-02-18T11:30:52;7.60;99.90
32749;DHT22;19119;52.474;13.710;2023-02-18T11:33:33;7.70;99.90
32749;DHT22;19119;52.474;13.710;2023-02-18T11:36:04;7.60;99.90
32749;DHT22;19119;52.474;13.710;2023-02-18T11:38:46;7.60;99.90
32749;DHT22;19119;52.474;13.710;2023-02-18T11:41:15;7.50;99.90
32749;DHT22;19119;52.474;13.710;2023-02-18T11:43:45;7.50;99.90
32749;DHT22;19119;52.474;13.710;2023-02-18T11:48:37;7.30;99.90
32749;DHT22;19119;52.474;13.710;2023-02-18T11:51:03;7.30;99.90
32749;DHT22;19119;52.474;13.710;2023-02-18T11:53:31;7.20;99.90
32749;DHT22;19119;52.474;13.710;2023-02-18T11:55:59;7.20;99.90
32749;DHT22;19119;52.474;13.710;2023-02-18T11:58:26;7.20;99.90
32749;DHT22;19119;52.474;13.710;2023-02-18T12:00:55;7.10;99.90
32749;DHT22;19119;52.474;13.710;2023-02-18T12:06:49;6.90;99.90
32749;DHT22;19119;52.474;13.710;2023-02-18T12:12:17;7.10;99.90
32749;DHT22;19119;52.474;13.710;2023-02-18T12:14:40;7.10;99.90
32749;DHT22;19119;52.474;13.710;2023-02-18T12:23:38;7.40;99.90
32749;DHT22;19119;52.474;13.710;2023-02-18T12:28:46;7.50;99.90
32749;DHT22;19119;52.474;13.710;2023-02-18T12:31:30;7.40;99.90
32749;DHT22;19119;52.474;13.710;2023-02-18T12:37:13;7.50;99.90
32749;DHT22;19119;52.474;13.710;2023-02-18T12:45:39;7.60;99.90
32749;DHT22;19119;52.474;13.710;2023-02-18T12:53:48;7.80;99.90
32749;DHT22;19119;52.474;13.710;2023-02-18T12:59:58;8.00;99.90
32749;DHT22;19119;52.474;13.710;2023-02-18T13:02:42;8.10;99.90
32749;DHT22;19119;52.474;13.710;2023-02-18T13:05:37;8.30;99.90
32749;DHT22;19119;52.474;13.710;2023-02-18T13:14:13;8.70;99.90
32749;DHT22;19119;52.474;13.710;2023-02-18T13:16:42;8.90;99.90
32749;DHT22;19119;52.474;13.710;2023-02-18T13:21:37;9.20;99.90
32749;DHT22;19119;52.474;13.710;2023-02-18T13:24:05;9.30;99.90
32749;DHT22;19119;52.474;13.710;2023-02-18T13:26:31;9.40;99.90
32749;DHT22;19119;52.474;13.710;2023-02-18T13:39:17;9.70;99.90
32749;DHT22;19119;52.474;13.710;2023-02-18T13:41:45;9.70;99.90
32749;DHT22;19119;52.474;13.710;2023-02-18T13:46:46;9.70;99.90
32749;DHT22;19119;52.474;13.710;2023-02-18T13:49:12;9.70;99.90
32749;DHT22;19119;52.474;13.710;2023-02-18T13:51:39;9.70;99.90
32749;DHT22;19119;52.474;13.710;2023-02-18T13:56:32;9.80;99.90
32749;DHT22;19119;52.474;13.710;2023-02-18T13:59:08;9.90;99.90
32749;DHT22;19119;52.474;13.710;2023-02-18T14:01:44;9.90;99.90
32749;DHT22;19119;52.474;13.710;2023-02-18T14:09:39;9.90;99.90
32749;DHT22;19119;52.474;13.710;2023-02-18T14:12:16;9.90;99.90
32749;DHT22;19119;52.474;13.710;2023-02-18T14:14:41;9.90;99.90
32749;DHT22;19119;52.474;13.710;2023-02-18T14:19:38;9.80;99.90
32749;DHT22;19119;52.474;13.710;2023-02-18T14:22:24;9.80;99.90
32749;DHT22;19119;52.474;13.710;2023-02-18T14:24:52;9.80;99.90
32749;DHT22;19119;52.474;13.710;2023-02-18T14:27:19;9.90;99.90
32749;DHT22;19119;52.474;13.710;2023-02-18T14:29:48;9.80;99.90
32749;DHT22;19119;52.474;13.710;2023-02-18T14:32:15;9.80;99.90
32749;DHT22;19119;52.474;13.710;2023-02-18T14:34:51;9.80;99.90
32749;DHT22;19119;52.474;13.710;2023-02-18T14:37:36;9.80;99.90
32749;DHT22;19119;52.474;13.710;2023-02-18T14:43:00;9.90;99.90
32749;DHT22;19119;52.474;13.710;2023-02-18T14:45:34;9.90;99.90
32749;DHT22;19119;52.474;13.710;2023-02-18T14:48:13;9.90;99.90
32749;DHT22;19119;52.474;13.710;2023-02-18T14:50:42;9.90;99.90
32749;DHT22;19119;52.474;13.710;2023-02-18T14:53:11;9.90;99.90
32749;DHT22;19119;52.474;13.710;2023-02-18T14:55:43;10.00;99.90
32749;DHT22;19119;52.474;13.710;2023-02-18T15:00:38;9.90;99.90
32749;DHT22;19119;52.474;13.710;2023-02-18T15:03:10;9.90;99.90
32749;DHT22;19119;52.474;13.710;2023-02-18T15:05:37;9.90;99.90
32749;DHT22;19119;52.474;13.710;2023-02-18T15:08:06;10.00;99.90
32749;DHT22;19119;52.474;13.710;2023-02-18T15:13:01;9.90;99.90
32749;DHT22;19119;52.474;13.710;2023-02-18T15:15:27;9.90;99.90
32749;DHT22;19119;52.474;13.710;2023-02-18T15:17:52;9.80;99.90
32749;DHT22;19119;52.474;13.710;2023-02-18T15:20:18;9.80;99.90
32749;DHT22;19119;52.474;13.710;2023-02-18T15:22:43;9.70;99.90
32749;DHT22;19119;52.474;13.710;2023-02-18T15:25:10;9.70;99.90
32749;DHT22;19119;52.474;13.710;2023-02-18T15:27:37;9.70;99.90
32749;DHT22;19119;52.474;13.710;2023-02-18T15:32:51;9.70;99.90
32749;DHT22;19119;52.474;13.710;2023-02-18T15:35:19;9.70;99.90
32749;DHT22;19119;52.474;13.710;2023-02-18T15:37:50;9.70;99.90
32749;DHT22;19119;52.474;13.710;2023-02-18T15:40:16;9.70;99.90
32749;DHT22;19119;52.474;13.710;2023-02-18T15:42:42;9.70;99.90
32749;DHT22;19119;52.474;13.710;2023-02-18T15:45:20;10.00;99.90
32749;DHT22;19119;52.474;13.710;2023-02-18T15:47:47;9.60;99.90
32749;DHT22;19119;52.474;13.710;2023-02-18T15:50:18;9.60;99.90
32749;DHT22;19119;52.474;13.710;2023-02-18T15:52:44;9.70;99.90
32749;DHT22;19119;52.474;13.710;2023-02-18T15:55:11;9.60;99.90
32749;DHT22;19119;52.474;13.710;2023-02-18T15:57:37;9.50;99.90
32749;DHT22;19119;52.474;13.710;2023-02-18T16:00:09;9.50;99.90
32749;DHT22;19119;52.474;13.710;2023-02-18T16:02:37;9.60;99.90
32749;DHT22;19119;52.474;13.710;2023-02-18T16:05:15;9.70;99.90
32749;DHT22;19119;52.474;13.710;2023-02-18T16:07:51;9.60;99.90
32749;DHT22;19119;52.474;13.710;2023-02-18T16:10:24;9.60;99.90
32749;DHT22;19119;52.474;13.710;2023-02-18T16:12:51;9.60;99.90
32749;DHT22;19119;52.474;13.710;2023-02-18T16:15:25;9.60;99.90
32749;DHT22;19119;52.474;13.710;2023-02-18T16:17:53;9.60;99.90
32749;DHT22;19119;52.474;13.710;2023-02-18T16:22:50;9.60;99.90
32749;DHT22;19119;52.474;13.710;2023-02-18T16:28:25;9.50;99.90
32749;DHT22;19119;52.474;13.710;2023-02-18T16:30:31;9.50;99.90
32749;DHT22;19119;52.474;13.710;2023-02-18T16:32:57;10.10;99.90
32749;DHT22;19119;52.474;13.710;2023-02-18T16:35:24;11.70;99.90
32749;DHT22;19119;52.474;13.710;2023-02-18T16:37:49;12.10;99.90
32749;DHT22;19119;52.474;13.710;2023-02-18T16:42:46;12.10;99.90
32749;DHT22;19119;52.474;13.710;2023-02-18T16:45:12;12.00;99.90
32749;DHT22;19119;52.474;13.710;2023-02-18T16:47:38;12.10;99.90
32749;DHT22;19119;52.474;13.710;2023-02-18T16:50:03;11.60;99.90
32749;DHT22;19119;52.474;13.710;2023-02-18T16:52:29;11.80;99.90
32749;DHT22;19119;52.474;13.710;2023-02-18T16:54:54;11.90;99.90
32749;DHT22;19119;52.474;13.710;2023-02-18T16:57:20;12.10;99.90
32749;DHT22;19119;52.474;13.710;2023-02-18T16:59:46;12.30;99.90
32749;DHT22;19119;52.474;13.710;2023-02-18T17:02:14;12.10;99.90
32749;DHT22;19119;52.474;13.710;2023-02-18T17:04:42;12.40;99.90
32749;DHT22;19119;52.474;13.710;2023-02-18T17:07:08;12.00;99.90
32749;DHT22;19119;52.474;13.710;2023-02-18T17:09:34;12.20;99.90
32749;DHT22;19119;52.474;13.710;2023-02-18T17:12:00;12.30;99.90
32749;DHT22;19119;52.474;13.710;2023-02-18T17:14:27;12.10;99.90
32749;DHT22;19119;52.474;13.710;2023-02-18T17:16:53;11.80;99.90
32749;DHT22;19119;52.474;13.710;2023-02-18T17:19:19;11.60;99.90
32749;DHT22;19119;52.474;13.710;2023-02-18T17:21:45;11.60;99.90
32749;DHT22;19119;52.474;13.710;2023-02-18T17:24:11;11.80;99.90
32749;DHT22;19119;52.474;13.710;2023-02-18T17:26:36;11.50;99.90
32749;DHT22;19119;52.474;13.710;2023-02-18T17:29:02;11.50;99.90
32749;DHT22;19119;52.474;13.710;2023-02-18T17:31:30;11.60;99.90
32749;DHT22;19119;52.474;13.710;2023-02-18T17:33:57;11.60;99.90
32749;DHT22;19119;52.474;13.710;2023-02-18T17:36:23;11.50;99.90
32749;DHT22;19119;52.474;13.710;2023-02-18T17:38:49;11.30;99.90
32749;DHT22;19119;52.474;13.710;2023-02-18T17:41:14;11.30;99.90
32749;DHT22;19119;52.474;13.710;2023-02-18T17:43:40;11.40;99.90
32749;DHT22;19119;52.474;13.710;2023-02-18T17:46:09;11.30;99.90
32749;DHT22;19119;52.474;13.710;2023-02-18T17:48:35;11.30;99.90
32749;DHT22;19119;52.474;13.710;2023-02-18T17:51:01;11.50;99.90
32749;DHT22;19119;52.474;13.710;2023-02-18T17:53:26;11.30;99.90
32749;DHT22;19119;52.474;13.710;2023-02-18T17:55:52;11.50;99.90
32749;DHT22;19119;52.474;13.710;2023-02-18T17:58:17;11.50;99.90
32749;DHT22;19119;52.474;13.710;2023-02-18T18:00:45;11.60;99.90